createdAt,value
2022-11-03T00:01:18.762Z,19.6
2022-11-03T00:06:42.264Z,19.6
2022-11-03T00:12:04.230Z,19.6
2022-11-03T00:17:41.256Z,19.6
2022-11-03T00:23:18.802Z,19.6
2022-11-03T00:28:55.365Z,19.6
2022-11-03T00:34:32.763Z,19.6
2022-11-03T00:40:10.764Z,19.6
2022-11-03T00:45:48.529Z,19.6
2022-11-03T00:51:00.033Z,19.6
2022-11-03T00:56:41.401Z,19.6
2022-11-03T01:02:04.621Z,19.6
2022-11-03T01:07:26.231Z,19.6
2022-11-03T01:12:52.224Z,19.5
2022-11-03T01:18:13.764Z,19.6
2022-11-03T01:23:50.937Z,19.6
2022-11-03T01:29:29.043Z,19.6
2022-11-03T01:35:06.029Z,19.6
2022-11-03T01:40:42.909Z,19.5
2022-11-03T01:46:20.612Z,19.5
2022-11-03T01:51:11.576Z,19.5
2022-11-03T01:56:48.220Z,19.6
2022-11-03T02:02:27.023Z,19.5
2022-11-03T02:08:04.720Z,19.4
2022-11-03T02:13:40.373Z,19.5
2022-11-03T02:19:19.075Z,19.5
2022-11-03T02:24:55.550Z,19.5
2022-11-03T02:30:32.680Z,19.4
2022-11-03T02:36:11.034Z,19.5
2022-11-03T02:41:31.701Z,19.5
2022-11-03T02:46:23.373Z,19.4
2022-11-03T02:51:45.179Z,19.5
2022-11-03T02:57:22.703Z,19.5
2022-11-03T03:03:00.407Z,19.4
2022-11-03T03:08:07.411Z,19.5
2022-11-03T03:13:12.689Z,19.4
2022-11-03T03:18:48.986Z,19.5
2022-11-03T03:24:32.112Z,19.5
2022-11-03T03:30:08.574Z,19.5
2022-11-03T03:36:03.259Z,19.4
2022-11-03T03:41:27.498Z,19.5
2022-11-03T03:46:49.541Z,19.4
2022-11-03T03:52:09.955Z,19.4
2022-11-03T03:57:16.702Z,19.4
2022-11-03T04:02:44.143Z,19.4
2022-11-03T04:08:05.980Z,19.5
2022-11-03T04:13:28.162Z,19.4
2022-11-03T04:18:49.490Z,19.5
2022-11-03T04:24:26.452Z,19.4
2022-11-03T04:30:04.152Z,19.4
2022-11-03T04:35:40.932Z,19.4
2022-11-03T04:41:27.352Z,19.4
2022-11-03T04:47:04.871Z,19.4
2022-11-03T04:52:26.647Z,19.4
2022-11-03T04:57:48.368Z,19.4
2022-11-03T05:03:16.124Z,19.4
2022-11-03T05:08:38.943Z,19.4
2022-11-03T05:14:20.316Z,19.5
2022-11-03T05:19:57.808Z,19.4
2022-11-03T05:25:35.773Z,19.4
2022-11-03T05:31:12.962Z,19.4
2022-11-03T05:36:50.876Z,19.5
2022-11-03T05:42:28.454Z,19.5
2022-11-03T05:47:57.882Z,19.5
2022-11-03T05:53:20.358Z,19.6
2022-11-03T05:58:46.276Z,19.5
2022-11-03T06:04:10.213Z,19.5
2022-11-03T06:09:52.532Z,19.5
2022-11-03T06:15:14.878Z,19.5
2022-11-03T06:20:52.047Z,19.5
2022-11-03T06:26:29.794Z,19.5
2022-11-03T06:32:12.513Z,19.5
2022-11-03T06:37:49.912Z,19.5
2022-11-03T06:43:27.658Z,19.5
2022-11-03T06:49:04.939Z,19.5
2022-11-03T06:54:41.536Z,19.6
2022-11-03T07:00:51.997Z,19.6
2022-11-03T07:06:31.309Z,19.6
2022-11-03T07:12:10.173Z,19.6
2022-11-03T07:17:53.643Z,19.6
2022-11-03T07:23:31.252Z,19.6
2022-11-03T07:29:08.089Z,19.6
2022-11-03T07:34:52.340Z,19.6
2022-11-03T07:41:05.150Z,19.6
2022-11-03T07:46:47.536Z,19.6
2022-11-03T07:52:30.228Z,19.6
2022-11-03T07:58:09.010Z,19.6
2022-11-03T08:03:47.982Z,19.6
2022-11-03T08:09:14.167Z,19.6
2022-11-03T08:14:36.637Z,19.6
2022-11-03T08:20:14.190Z,19.7
2022-11-03T08:26:17.986Z,19.7
2022-11-03T08:32:01.432Z,19.8
2022-11-03T08:37:42.402Z,19.8
2022-11-03T08:43:25.792Z,19.8
2022-11-03T08:49:13.177Z,19.9
2022-11-03T08:54:51.223Z,19.9
2022-11-03T09:00:32.749Z,19.9
2022-11-03T09:06:11.985Z,20.1
2022-11-03T09:13:33.177Z,20.1
2022-11-03T09:18:40.860Z,20.1
2022-11-03T09:24:19.068Z,20.1
2022-11-03T09:30:14.965Z,20.1
2022-11-03T09:35:59.285Z,20.1
2022-11-03T09:41:55.625Z,20.2
2022-11-03T09:47:35.057Z,20.2
2022-11-03T09:52:57.468Z,20.2
2022-11-03T09:58:35.050Z,20.2
2022-11-03T10:03:58.244Z,20.3
2022-11-03T10:09:43.485Z,20.2
2022-11-03T10:15:22.186Z,20.2
2022-11-03T10:21:02.685Z,20
2022-11-03T10:26:41.365Z,20.2
2022-11-03T10:32:51.123Z,20.2
2022-11-03T10:38:30.243Z,20.2
2022-11-03T10:44:28.880Z,20.3
2022-11-03T10:50:17.055Z,20.2
2022-11-03T10:55:58.303Z,20.2
2022-11-03T11:01:37.262Z,20.1
2022-11-03T11:07:16.650Z,20.3
2022-11-03T11:12:39.838Z,20.2
2022-11-03T11:18:17.063Z,20.3
2022-11-03T11:23:39.253Z,20.2
2022-11-03T11:29:21.204Z,20.3
2022-11-03T11:34:58.687Z,20.3
2022-11-03T11:40:41.007Z,20.2
2022-11-03T11:46:02.383Z,20.3
2022-11-03T11:51:24.612Z,20.2
2022-11-03T11:57:23.536Z,20.2
2022-11-03T12:02:46.687Z,20.2
2022-11-03T12:08:25.822Z,20.2
2022-11-03T12:14:09.511Z,20.2
2022-11-03T12:19:53.697Z,20.2
2022-11-03T12:25:16.354Z,20.3
2022-11-03T12:30:40.156Z,20.3
2022-11-03T12:36:42.270Z,20.3
2022-11-03T12:42:04.799Z,20.2
2022-11-03T12:47:47.418Z,20.3
2022-11-03T12:53:31.149Z,20.2
2022-11-03T12:59:09.258Z,20.3
2022-11-03T13:04:35.553Z,20.3
2022-11-03T13:10:19.395Z,20.3
2022-11-03T13:15:57.380Z,20.3
2022-11-03T13:22:11.587Z,20.3
2022-11-03T13:27:49.029Z,20.3
2022-11-03T13:33:29.213Z,20.3
2022-11-03T13:39:07.762Z,20.3
2022-11-03T13:45:21.053Z,20.3
2022-11-03T14:10:03.990Z,20.4
2022-11-03T14:15:41.849Z,20.4
2022-11-03T14:21:31.935Z,20.4
2022-11-03T14:27:40.734Z,20.4
2022-11-03T14:33:32.170Z,20.4
2022-11-03T14:39:10.288Z,20.4
2022-11-03T14:44:49.345Z,20.4
2022-11-03T14:50:27.148Z,20.4
2022-11-03T14:56:04.795Z,20.4
2022-11-03T15:01:50.383Z,20.4
2022-11-03T15:07:27.896Z,20.4
2022-11-03T15:13:07.207Z,20.4
2022-11-03T15:18:52.802Z,20.4
2022-11-03T15:26:35.717Z,20.4
2022-11-03T15:32:20.123Z,20.4
2022-11-03T15:37:31.083Z,20.4
2022-11-03T15:42:53.580Z,20.4
2022-11-03T15:48:34.600Z,20.4
2022-11-03T15:54:15.407Z,20.4
2022-11-03T15:59:42.196Z,20.3
2022-11-03T16:05:30.413Z,20.4
2022-11-03T16:11:09.698Z,20.3
2022-11-03T16:16:47.303Z,20.3
2022-11-03T16:22:27.720Z,20.4
2022-11-03T16:28:01.629Z,20.4
2022-11-03T16:33:07.772Z,20.3
2022-11-03T16:38:30.428Z,20.4
2022-11-03T16:44:11.699Z,20.3
2022-11-03T16:49:51.680Z,20.4
2022-11-03T16:55:35.830Z,20.3
2022-11-03T17:01:20.768Z,20.3
2022-11-03T17:06:44.438Z,20.4
2022-11-03T17:12:40.278Z,20.4
2022-11-03T17:18:22.636Z,20.4
2022-11-03T17:24:00.173Z,20.4
2022-11-03T17:29:42.228Z,20.4
2022-11-03T17:35:04.746Z,20.4
2022-11-03T17:40:43.655Z,20.4
2022-11-03T17:46:20.821Z,20.4
2022-11-03T17:51:58.912Z,20.4
2022-11-03T17:57:53.670Z,20.4
2022-11-03T18:03:17.067Z,20.4
2022-11-03T18:08:58.635Z,20.4
2022-11-03T18:14:23.567Z,20.3
2022-11-03T18:19:46.248Z,20.4
2022-11-03T18:25:23.817Z,20.3
2022-11-03T18:31:01.400Z,20.3
2022-11-03T18:36:45.929Z,20.3
2022-11-03T18:42:23.860Z,20.3
2022-11-03T18:48:05.583Z,20.3
2022-11-03T18:53:27.992Z,20.3
2022-11-03T18:59:08.682Z,20.3
2022-11-03T19:04:31.845Z,20.3
2022-11-03T19:09:57.794Z,20.3
2022-11-03T19:15:41.553Z,20.3
2022-11-03T19:21:47.891Z,20.4
2022-11-03T19:27:26.675Z,20.3
2022-11-03T19:32:37.410Z,20.3
2022-11-03T19:37:50.493Z,20.3
2022-11-03T19:43:33.401Z,20.3
2022-11-03T19:49:41.750Z,20.3
2022-11-03T19:55:10.356Z,20.3
2022-11-03T20:00:47.366Z,20.3
2022-11-03T20:06:29.604Z,20.3
2022-11-03T20:11:59.594Z,20.3
2022-11-03T20:17:38.639Z,20.3
2022-11-03T20:23:00.114Z,20.3
2022-11-03T20:28:20.955Z,20.3
2022-11-03T20:33:45.074Z,20.3
2022-11-03T20:38:51.376Z,20.2
2022-11-03T20:43:58.648Z,20.2
2022-11-03T20:48:54.137Z,20.1
2022-11-03T20:54:16.936Z,20.1
2022-11-03T20:59:40.290Z,20.1
2022-11-03T21:05:08.934Z,20.1
2022-11-03T21:10:52.967Z,20.1
2022-11-03T21:17:07.401Z,20.1
2022-11-03T21:22:38.167Z,20.1
2022-11-03T21:28:28.479Z,20.1
2022-11-03T21:34:24.251Z,19.9
2022-11-03T21:40:02.480Z,20
2022-11-03T21:45:24.452Z,19.9
2022-11-03T21:50:47.156Z,20
2022-11-03T21:56:14.423Z,19.9
2022-11-03T22:01:38.242Z,19.9
2022-11-03T22:07:20.112Z,20
2022-11-03T22:12:57.219Z,19.9
2022-11-03T22:18:19.239Z,19.9
2022-11-03T22:23:56.587Z,19.9
2022-11-03T22:29:04.788Z,20
2022-11-03T22:34:41.721Z,19.9
2022-11-03T22:40:03.788Z,19.9
2022-11-03T22:45:26.826Z,20
2022-11-03T22:50:51.875Z,19.9
2022-11-03T22:55:58.715Z,19.9
2022-11-03T23:01:20.372Z,19.9
2022-11-03T23:06:28.948Z,20
2022-11-03T23:11:57.098Z,19.9
2022-11-03T23:17:04.401Z,19.9
2022-11-03T23:22:25.841Z,19.9
2022-11-03T23:27:48.836Z,19.9
2022-11-03T23:33:11.015Z,19.9
2022-11-03T23:38:33.475Z,19.9
2022-11-03T23:43:57.929Z,19.9
2022-11-03T23:49:04.573Z,19.9
2022-11-03T23:54:25.476Z,19.9
2022-11-03T23:59:48.004Z,20
